createdAt,value
2019-02-12T00:03:36.040Z,93.41
2019-02-12T00:08:54.748Z,93.56
2019-02-12T00:14:13.496Z,93.93
2019-02-12T00:19:32.279Z,94.29
2019-02-12T00:24:51.179Z,94.62
2019-02-12T00:30:11.403Z,94.33
2019-02-12T00:35:30.338Z,94.67
2019-02-12T00:40:49.009Z,94.82
2019-02-12T00:46:07.718Z,95.35
2019-02-12T00:51:26.422Z,95.78
2019-02-12T00:56:45.214Z,95.54
2019-02-12T01:02:03.945Z,95.09
2019-02-12T01:07:22.692Z,94.60
2019-02-12T01:12:41.488Z,94.27
2019-02-12T01:18:00.253Z,94.11
2019-02-12T01:23:18.941Z,93.67
2019-02-12T01:28:37.857Z,93.84
2019-02-12T01:33:56.732Z,93.81
2019-02-12T01:39:15.567Z,93.55
2019-02-12T01:44:34.530Z,93.95
2019-02-12T01:49:53.320Z,94.31
2019-02-12T01:55:12.334Z,94.13
2019-02-12T02:00:31.107Z,94.11
2019-02-12T02:05:49.879Z,94.09
2019-02-12T02:11:08.572Z,94.06
2019-02-12T02:16:27.379Z,93.85
2019-02-12T02:21:46.062Z,93.71
2019-02-12T02:27:04.936Z,93.88
2019-02-12T02:32:23.692Z,93.86
2019-02-12T02:37:42.523Z,94.38
2019-02-12T02:43:01.245Z,94.78
2019-02-12T02:48:19.987Z,94.77
2019-02-12T02:53:39.068Z,95.04
2019-02-12T02:58:57.782Z,95.27
2019-02-12T03:04:16.425Z,95.50
2019-02-12T03:09:35.125Z,95.98
2019-02-12T03:14:53.845Z,96.05
2019-02-12T03:20:13.039Z,96.34
2019-02-12T03:25:31.793Z,96.20
2019-02-12T03:30:50.679Z,96.08
2019-02-12T03:36:09.367Z,96.09
2019-02-12T03:41:28.234Z,96.10
2019-02-12T03:46:46.976Z,95.97
2019-02-12T03:52:12.688Z,95.83
2019-02-12T03:57:26.535Z,96.21
2019-02-12T04:03:07.439Z,96.59
2019-02-12T04:08:27.889Z,96.83
2019-02-12T04:13:46.579Z,96.95
2019-02-12T04:19:05.271Z,97.20
2019-02-12T04:24:26.148Z,97.27
2019-02-12T04:29:44.936Z,97.55
2019-02-12T04:35:03.709Z,97.63
2019-02-12T04:40:22.788Z,97.62
2019-02-12T04:45:41.426Z,97.21
2019-02-12T04:51:00.426Z,97.13
2019-02-12T04:56:19.235Z,97.08
2019-02-12T05:01:38.959Z,97.09
2019-02-12T05:06:57.703Z,97.25
2019-02-12T05:12:18.397Z,97.22
2019-02-12T05:17:36.982Z,97.27
2019-02-12T05:22:56.037Z,97.29
2019-02-12T05:28:14.811Z,97.25
2019-02-12T05:33:35.143Z,97.20
2019-02-12T05:39:01.160Z,97.25
2019-02-12T05:44:21.537Z,97.02
2019-02-12T05:49:41.741Z,96.94
2019-02-12T05:55:00.445Z,97.01
2019-02-12T06:00:40.581Z,97.00
2019-02-12T06:06:18.490Z,96.90
2019-02-12T06:11:39.239Z,97.00
2019-02-12T06:17:01.042Z,97.22
2019-02-12T06:22:19.912Z,97.36
2019-02-12T06:27:38.595Z,97.23
2019-02-12T06:32:57.292Z,97.06
2019-02-12T06:38:29.367Z,96.92
2019-02-12T06:55:36.626Z,96.60
2019-02-12T07:00:57.057Z,96.66
2019-02-12T07:06:30.993Z,96.50
2019-02-12T07:12:15.114Z,96.11
2019-02-12T07:18:06.903Z,95.94
2019-02-12T07:23:31.402Z,95.72
2019-02-12T07:29:29.499Z,95.51
2019-02-12T07:35:10.607Z,95.25
2019-02-12T07:40:32.201Z,95.02
2019-02-12T07:45:53.784Z,94.59
2019-02-12T07:51:20.114Z,94.52
2019-02-12T07:57:02.607Z,94.28
2019-02-12T08:02:57.030Z,94.19
2019-02-12T08:08:35.097Z,93.91
2019-02-12T08:14:05.374Z,93.86
2019-02-12T08:19:35.821Z,94.08
2019-02-12T08:25:30.268Z,94.15
2019-02-12T08:31:12.651Z,94.15
2019-02-12T08:36:40.327Z,94.02
2019-02-12T08:42:15.720Z,93.92
2019-02-12T08:47:55.039Z,93.64
2019-02-12T08:53:33.369Z,93.90
2019-02-12T08:59:12.951Z,93.74
2019-02-12T09:04:53.670Z,94.04
2019-02-12T09:10:40.769Z,93.82
2019-02-12T09:16:10.478Z,93.09
2019-02-12T09:21:54.170Z,92.43
2019-02-12T09:27:30.646Z,92.86
2019-02-12T09:39:16.053Z,90.32
2019-02-12T09:44:46.399Z,90.62
2019-02-12T09:50:10.826Z,90.47
2019-02-12T09:55:54.497Z,89.74
2019-02-12T10:01:21.719Z,88.60
2019-02-12T10:06:49.000Z,88.16
2019-02-12T10:12:19.122Z,87.39
2019-02-12T10:17:43.233Z,87.59
2019-02-12T10:23:13.304Z,86.26
2019-02-12T10:28:49.732Z,85.55
2019-02-12T10:34:08.359Z,83.96
2019-02-12T10:39:28.853Z,85.85
2019-02-12T10:44:47.502Z,86.13
2019-02-12T10:50:08.153Z,84.81
2019-02-12T10:55:27.591Z,85.01
2019-02-12T11:00:46.233Z,82.82
2019-02-12T11:06:05.052Z,83.74
2019-02-12T11:11:23.889Z,84.09
2019-02-12T11:16:42.444Z,85.18
2019-02-12T11:22:01.079Z,83.91
2019-02-12T11:27:19.743Z,81.59
2019-02-12T11:32:38.285Z,84.73
2019-02-12T11:37:56.837Z,84.13
2019-02-12T11:43:15.484Z,82.81
2019-02-12T11:48:34.048Z,82.52
2019-02-12T11:53:52.602Z,82.78
2019-02-12T11:59:11.150Z,83.16
2019-02-12T12:04:29.851Z,81.86
2019-02-12T12:09:48.506Z,82.32
2019-02-12T12:15:09.905Z,79.79
2019-02-12T12:20:28.538Z,79.63
2019-02-12T12:25:47.399Z,78.87
2019-02-12T12:31:06.031Z,78.27
2019-02-12T12:36:24.666Z,78.72
2019-02-12T12:41:43.336Z,77.31
2019-02-12T12:47:01.822Z,78.32
2019-02-12T12:52:20.293Z,79.57
2019-02-12T12:57:42.140Z,77.65
2019-02-12T13:03:04.684Z,78.27
2019-02-12T13:08:23.977Z,79.40
2019-02-12T13:13:47.948Z,76.97
2019-02-12T13:19:39.111Z,78.75
2019-02-12T13:25:14.857Z,77.12
2019-02-12T13:35:57.811Z,76.66
2019-02-12T13:41:18.124Z,76.40
2019-02-12T13:53:00.696Z,75.94
2019-02-12T13:58:19.271Z,76.15
2019-02-12T14:03:37.958Z,73.50
2019-02-12T14:08:56.500Z,75.11
2019-02-12T14:14:15.002Z,73.48
2019-02-12T14:19:33.487Z,73.00
2019-02-12T14:24:58.010Z,74.33
2019-02-12T14:30:24.613Z,73.71
2019-02-12T14:35:58.270Z,73.11
2019-02-12T14:47:53.724Z,74.36
2019-02-12T14:52:35.113Z,73.66
2019-02-12T14:57:58.484Z,75.07
2019-02-12T15:15:43.169Z,74.70
2019-02-12T15:21:02.777Z,75.83
2019-02-12T15:26:21.332Z,76.30
2019-02-12T15:31:41.421Z,77.02
2019-02-12T15:36:59.912Z,77.42
2019-02-12T15:42:18.582Z,78.24
2019-02-12T15:53:05.743Z,79.50
2019-02-12T15:58:25.959Z,80.09
2019-02-12T16:03:44.526Z,80.81
2019-02-12T16:09:04.761Z,81.46
2019-02-12T16:14:23.612Z,82.50
2019-02-12T16:19:42.239Z,83.12
2019-02-12T16:25:00.794Z,83.69
2019-02-12T16:30:20.752Z,84.39
2019-02-12T16:35:39.370Z,85.06
2019-02-12T16:40:57.916Z,85.48
2019-02-12T16:46:20.490Z,86.02
2019-02-12T16:51:49.051Z,86.42
2019-02-12T16:57:07.690Z,86.62
2019-02-12T17:02:26.543Z,87.08
2019-02-12T17:07:47.206Z,87.87
2019-02-12T17:13:06.035Z,88.07
2019-02-12T17:18:24.503Z,88.25
2019-02-12T17:23:43.047Z,88.86
2019-02-12T17:29:04.327Z,89.50
2019-02-12T17:34:22.809Z,89.59
2019-02-12T17:39:41.297Z,89.37
2019-02-12T17:44:59.775Z,89.42
2019-02-12T17:50:18.359Z,89.75
2019-02-12T17:55:36.833Z,89.85
2019-02-12T18:00:55.527Z,89.99
2019-02-12T18:06:14.116Z,90.11
2019-02-12T18:11:32.652Z,90.53
2019-02-12T18:16:51.227Z,90.47
2019-02-12T18:22:20.971Z,90.85
2019-02-12T18:28:09.292Z,90.51
2019-02-12T18:39:32.125Z,91.32
2019-02-12T18:45:34.927Z,91.62
2019-02-12T18:56:45.604Z,91.08
2019-02-12T19:08:37.427Z,91.11
2019-02-12T19:25:38.770Z,91.67
2019-02-12T19:30:57.249Z,92.17
2019-02-12T19:36:36.710Z,92.88
2019-02-12T19:42:05.018Z,92.86
2019-02-12T19:47:29.863Z,92.58
2019-02-12T19:52:57.648Z,92.39
2019-02-12T19:58:23.852Z,92.19
2019-02-12T20:03:54.349Z,92.13
2019-02-12T20:09:15.158Z,93.17
2019-02-12T20:14:52.491Z,92.92
2019-02-12T20:20:44.905Z,92.60
2019-02-12T20:25:54.299Z,92.91
2019-02-12T20:31:20.674Z,92.84
2019-02-12T20:36:41.681Z,92.54
2019-02-12T20:42:11.052Z,91.71
2019-02-12T20:47:33.127Z,91.01
2019-02-12T20:52:51.957Z,91.37
2019-02-12T20:58:50.924Z,90.75
2019-02-12T21:04:10.090Z,90.83
2019-02-12T21:09:28.836Z,91.01
2019-02-12T21:14:47.437Z,90.80
2019-02-12T21:20:10.483Z,90.99
2019-02-12T21:25:30.859Z,91.26
2019-02-12T21:30:51.188Z,90.87
2019-02-12T21:36:10.335Z,90.67
2019-02-12T21:41:29.174Z,90.25
2019-02-12T21:46:47.773Z,90.16
2019-02-12T21:52:06.498Z,89.71
2019-02-12T21:57:31.742Z,89.57
2019-02-12T22:02:48.549Z,89.54
2019-02-12T22:08:07.126Z,89.14
2019-02-12T22:13:25.686Z,88.90
2019-02-12T22:18:44.322Z,88.84
2019-02-12T22:24:02.868Z,89.00
2019-02-12T22:29:22.898Z,89.32
2019-02-12T22:34:41.777Z,89.08
2019-02-12T22:40:01.507Z,88.71
2019-02-12T22:45:24.504Z,88.46
2019-02-12T22:50:43.145Z,87.98
2019-02-12T22:56:01.706Z,88.02
2019-02-12T23:01:21.995Z,87.92
2019-02-12T23:06:40.629Z,87.94
2019-02-12T23:11:59.176Z,88.25
2019-02-12T23:17:18.079Z,88.49
2019-02-12T23:22:37.134Z,88.68
2019-02-12T23:27:57.757Z,88.59
2019-02-12T23:33:16.041Z,89.00
2019-02-12T23:38:34.783Z,88.88
2019-02-12T23:43:53.340Z,89.00
2019-02-12T23:49:12.015Z,89.36
2019-02-12T23:54:30.590Z,89.56
2019-02-12T23:59:49.344Z,89.49
